Time;durP1;ratioP1;P1;durP2;ratioP2;P2;SDS_P1;SDS_P2;PMS_P1;PMS_P2;Temp;Humidity;BMP_temperature;BMP_pressure;BME280_temperature;BME280_humidity;BME280_pressure;Samples;Min_cycle;Max_cycle;Signal;HPM_P1;HPM_P2
2021/03/17 00:00:56;;;;;;;9.83;4.43;;;;;;;;;;5032420;28;20049;-55
2021/03/17 00:03:23;;;;;;;11.70;4.13;;;;;;;;;;5032265;28;20123;-56
2021/03/17 00:05:50;;;;;;;10.83;4.00;;;;;;;;;;5032524;28;20141;-55
2021/03/17 00:08:22;;;;;;;10.23;5.00;;;;;;;;;;5032457;28;20029;-55
2021/03/17 00:10:50;;;;;;;9.70;3.33;;;;;;;;;;5032423;28;20096;-56
2021/03/17 00:13:18;;;;;;;8.73;3.40;;;;;;;;;;5032453;28;20026;-55
2021/03/17 00:15:45;;;;;;;13.30;3.70;;;;;;;;;;5032361;28;20372;-55
2021/03/17 00:18:13;;;;;;;10.90;3.77;;;;;;;;;;5032271;28;20528;-56
2021/03/17 00:20:40;;;;;;;7.43;3.23;;;;;;;;;;5032175;28;20021;-55
2021/03/17 00:23:07;;;;;;;8.43;3.53;;;;;;;;;;5032219;28;20040;-55
2021/03/17 00:25:35;;;;;;;10.63;4.57;;;;;;;;;;5032343;28;20028;-55
2021/03/17 00:28:02;;;;;;;13.40;3.73;;;;;;;;;;5034612;28;20429;-55
2021/03/17 00:30:32;;;;;;;17.37;4.80;;;;;;;;;;5035787;28;20036;-55
2021/03/17 00:33:03;;;;;;;9.83;3.60;;;;;;;;;;5035936;28;20025;-55
2021/03/17 00:35:30;;;;;;;8.03;3.40;;;;;;;;;;5036130;28;20064;-55
2021/03/17 00:37:57;;;;;;;25.07;10.70;;;;;;;;;;5035722;28;20036;-55
2021/03/17 00:40:24;;;;;;;19.27;10.17;;;;;;;;;;5035760;28;20022;-55
2021/03/17 00:42:51;;;;;;;14.57;7.07;;;;;;;;;;5035650;28;20048;-55
2021/03/17 00:45:18;;;;;;;12.00;5.70;;;;;;;;;;5017842;28;20052;-55
2021/03/17 00:47:45;;;;;;;11.60;4.53;;;;;;;;;;5036399;28;20045;-55
2021/03/17 00:50:13;;;;;;;10.03;4.83;;;;;;;;;;5035557;28;20400;-55
2021/03/17 00:52:40;;;;;;;8.03;3.80;;;;;;;;;;5035548;28;20032;-55
2021/03/17 00:55:07;;;;;;;12.00;3.57;;;;;;;;;;5035519;28;20144;-55
2021/03/17 00:57:34;;;;;;;9.33;3.57;;;;;;;;;;5035443;28;20029;-55
2021/03/17 01:00:01;;;;;;;15.67;3.53;;;;;;;;;;5035214;28;20031;-55
2021/03/17 01:02:28;;;;;;;9.13;3.73;;;;;;;;;;5035413;28;20045;-55
2021/03/17 01:04:54;;;;;;;9.67;3.80;;;;;;;;;;5035379;28;20542;-55
2021/03/17 01:07:21;;;;;;;8.67;3.90;;;;;;;;;;5035168;28;20387;-55
2021/03/17 01:09:48;;;;;;;10.23;3.80;;;;;;;;;;5035076;28;20385;-55
2021/03/17 01:12:15;;;;;;;8.33;3.87;;;;;;;;;;5035141;28;20061;-55
2021/03/17 01:14:42;;;;;;;8.67;3.97;;;;;;;;;;5035060;28;20018;-55
2021/03/17 01:17:09;;;;;;;8.63;4.20;;;;;;;;;;5035115;28;20096;-55
2021/03/17 01:19:36;;;;;;;11.43;4.30;;;;;;;;;;5034772;28;20037;-55
2021/03/17 01:22:04;;;;;;;9.27;3.97;;;;;;;;;;5034891;28;20037;-55
2021/03/17 01:24:31;;;;;;;10.20;3.87;;;;;;;;;;5034963;28;20088;-55
2021/03/17 01:26:57;;;;;;;9.47;4.03;;;;;;;;;;5034780;28;20021;-55
2021/03/17 01:29:24;;;;;;;11.10;3.93;;;;;;;;;;5034744;28;20048;-55
2021/03/17 01:31:51;;;;;;;20.90;5.27;;;;;;;;;;5034843;28;20431;-55
2021/03/17 01:34:18;;;;;;;11.03;4.40;;;;;;;;;;5034848;28;20026;-55
2021/03/17 01:36:45;;;;;;;17.40;4.10;;;;;;;;;;5034655;28;20022;-55
2021/03/17 01:39:12;;;;;;;9.70;3.67;;;;;;;;;;5034145;28;20040;-55
2021/03/17 01:41:39;;;;;;;10.87;4.60;;;;;;;;;;5034614;28;20105;-55
2021/03/17 01:44:06;;;;;;;9.30;3.73;;;;;;;;;;5034668;28;20112;-55
2021/03/17 01:46:32;;;;;;;13.37;4.77;;;;;;;;;;5034460;28;20025;-55
2021/03/17 01:48:59;;;;;;;10.07;4.77;;;;;;;;;;5035743;28;20084;-55
2021/03/17 01:51:27;;;;;;;7.73;3.83;;;;;;;;;;5016964;28;20047;-55
2021/03/17 01:53:54;;;;;;;16.40;4.43;;;;;;;;;;5034424;28;20380;-55
2021/03/17 01:56:21;;;;;;;11.13;4.80;;;;;;;;;;5034389;28;20026;-55
2021/03/17 01:58:48;;;;;;;10.03;4.60;;;;;;;;;;5034290;28;20472;-55
2021/03/17 02:01:14;;;;;;;8.07;3.87;;;;;;;;;;5034250;28;20037;-55
2021/03/17 02:03:41;;;;;;;7.80;4.87;;;;;;;;;;5034204;28;20033;-54
2021/03/17 02:06:08;;;;;;;10.87;4.80;;;;;;;;;;5034120;28;20100;-55
2021/03/17 02:08:38;;;;;;;13.13;4.43;;;;;;;;;;5034206;28;20030;-55
2021/03/17 02:11:06;;;;;;;10.40;3.60;;;;;;;;;;5033951;28;20026;-55
2021/03/17 02:13:54;;;;;;;8.90;4.03;;;;;;;;;;5034079;28;20045;-55
2021/03/17 02:16:31;;;;;;;7.57;3.83;;;;;;;;;;5033930;28;20093;-55
2021/03/17 02:19:07;;;;;;;8.33;4.20;;;;;;;;;;5033715;28;20060;-55
2021/03/17 02:21:52;;;;;;;12.67;4.60;;;;;;;;;;5033886;28;20025;-55
2021/03/17 02:24:23;;;;;;;11.60;4.20;;;;;;;;;;5033907;28;20484;-55
2021/03/17 02:26:49;;;;;;;8.37;3.93;;;;;;;;;;5033801;28;20022;-54
2021/03/17 02:29:35;;;;;;;6.60;4.00;;;;;;;;;;5033683;28;20543;-55
2021/03/17 02:32:04;;;;;;;12.87;4.50;;;;;;;;;;5033735;28;20029;-55
2021/03/17 02:34:36;;;;;;;10.43;4.67;;;;;;;;;;5033555;28;20380;-55
2021/03/17 02:37:05;;;;;;;7.77;3.70;;;;;;;;;;5033774;28;20029;-55
2021/03/17 02:39:35;;;;;;;11.27;3.57;;;;;;;;;;5033420;28;20480;-55
2021/03/17 02:42:20;;;;;;;7.33;3.40;;;;;;;;;;5033311;28;20080;-55
2021/03/17 02:44:49;;;;;;;8.27;3.50;;;;;;;;;;5033518;28;20022;-55
2021/03/17 02:47:17;;;;;;;11.10;3.93;;;;;;;;;;5034647;28;20528;-55
2021/03/17 02:49:46;;;;;;;13.73;3.70;;;;;;;;;;5032464;28;20436;-55
2021/03/17 02:52:13;;;;;;;7.17;3.63;;;;;;;;;;5033330;28;20033;-55
2021/03/17 02:54:43;;;;;;;9.67;3.70;;;;;;;;;;5033292;28;20017;-55
2021/03/17 02:57:13;;;;;;;11.67;3.77;;;;;;;;;;5033286;28;20021;-55
2021/03/17 02:59:41;;;;;;;5.83;3.80;;;;;;;;;;5033035;28;20029;-55
2021/03/17 03:02:08;;;;;;;8.03;3.83;;;;;;;;;;5032958;28;20057;-55
2021/03/17 03:04:36;;;;;;;10.00;3.77;;;;;;;;;;5033033;28;20472;-55
2021/03/17 03:07:04;;;;;;;7.80;3.53;;;;;;;;;;5033142;28;20492;-55
2021/03/17 03:09:30;;;;;;;7.03;3.63;;;;;;;;;;5033045;28;20029;-55
2021/03/17 03:11:58;;;;;;;8.67;3.87;;;;;;;;;;5032918;28;20057;-55
2021/03/17 03:14:26;;;;;;;10.80;4.03;;;;;;;;;;5032879;28;20053;-55
2021/03/17 03:16:58;;;;;;;10.00;3.87;;;;;;;;;;5032830;28;20025;-55
2021/03/17 03:19:26;;;;;;;10.90;3.97;;;;;;;;;;5032871;28;20025;-55
2021/03/17 03:21:53;;;;;;;8.87;4.30;;;;;;;;;;5032785;28;20037;-55
2021/03/17 03:24:20;;;;;;;9.10;4.03;;;;;;;;;;5032931;28;20068;-55
2021/03/17 03:26:54;;;;;;;8.13;4.10;;;;;;;;;;5032839;28;20375;-55
2021/03/17 03:29:21;;;;;;;6.50;3.97;;;;;;;;;;5032758;28;20075;-55
2021/03/17 03:31:48;;;;;;;11.80;4.40;;;;;;;;;;5032849;28;20017;-55
2021/03/17 03:34:16;;;;;;;6.87;3.80;;;;;;;;;;5032696;28;20076;-55
2021/03/17 03:36:43;;;;;;;12.30;4.07;;;;;;;;;;5032647;28;20477;-55
2021/03/17 03:39:11;;;;;;;11.13;4.17;;;;;;;;;;5032633;28;20037;-55
2021/03/17 03:41:37;;;;;;;9.03;4.13;;;;;;;;;;5032546;28;20022;-55
2021/03/17 03:44:05;;;;;;;8.57;3.70;;;;;;;;;;5032736;28;20030;-55
2021/03/17 03:46:33;;;;;;;6.83;4.17;;;;;;;;;;5032622;28;20445;-55
2021/03/17 03:49:00;;;;;;;9.30;3.80;;;;;;;;;;5033894;28;20539;-55
2021/03/17 03:51:28;;;;;;;14.37;5.07;;;;;;;;;;5032542;28;20076;-55
2021/03/17 03:54:20;;;;;;;9.30;4.80;;;;;;;;;;5032552;28;20018;-55
2021/03/17 03:57:00;;;;;;;7.27;4.20;;;;;;;;;;5028436;28;20658;-55
2021/03/17 03:59:32;;;;;;;9.60;4.40;;;;;;;;;;5032496;28;20104;-55
2021/03/17 04:02:01;;;;;;;9.73;5.20;;;;;;;;;;5034956;28;20057;-55
2021/03/17 04:04:29;;;;;;;8.67;4.13;;;;;;;;;;5036403;28;20029;-54
2021/03/17 04:06:57;;;;;;;8.63;4.83;;;;;;;;;;5036474;28;20033;-55
2021/03/17 04:09:29;;;;;;;10.33;4.87;;;;;;;;;;5036352;28;20108;-55
2021/03/17 04:11:57;;;;;;;6.70;4.10;;;;;;;;;;5036406;28;20037;-55
2021/03/17 04:14:25;;;;;;;7.20;4.63;;;;;;;;;;5036284;28;20378;-54
2021/03/17 04:16:53;;;;;;;12.67;4.90;;;;;;;;;;5036298;28;20168;-55
2021/03/17 04:19:22;;;;;;;10.47;4.20;;;;;;;;;;5036127;28;20033;-55
2021/03/17 04:21:49;;;;;;;18.60;5.37;;;;;;;;;;5036070;28;20044;-54
2021/03/17 04:24:17;;;;;;;9.07;4.57;;;;;;;;;;5036101;28;20056;-55
2021/03/17 04:26:44;;;;;;;9.90;4.20;;;;;;;;;;5036090;28;20025;-55
2021/03/17 04:29:12;;;;;;;7.47;4.33;;;;;;;;;;5035895;28;20032;-55
2021/03/17 04:31:39;;;;;;;10.17;5.20;;;;;;;;;;5035919;28;20021;-54
2021/03/17 04:34:08;;;;;;;8.27;5.00;;;;;;;;;;5035931;28;20025;-54
2021/03/17 04:36:35;;;;;;;11.57;4.40;;;;;;;;;;5035861;28;20085;-54
2021/03/17 04:39:02;;;;;;;14.43;5.93;;;;;;;;;;5035723;28;20343;-54
2021/03/17 04:41:29;;;;;;;8.53;4.43;;;;;;;;;;5035680;28;20035;-55
2021/03/17 04:43:56;;;;;;;10.70;4.77;;;;;;;;;;5035792;28;20037;-54
2021/03/17 04:46:23;;;;;;;9.57;5.63;;;;;;;;;;5035734;28;20052;-55
2021/03/17 04:48:51;;;;;;;10.53;5.20;;;;;;;;;;5036912;28;20053;-55
2021/03/17 04:51:18;;;;;;;9.33;4.83;;;;;;;;;;5035647;28;20021;-54
2021/03/17 04:53:45;;;;;;;14.07;4.73;;;;;;;;;;5035579;28;20025;-54
2021/03/17 04:56:13;;;;;;;12.60;4.57;;;;;;;;;;5035449;28;20376;-54
2021/03/17 04:58:41;;;;;;;9.87;4.90;;;;;;;;;;5035326;28;20060;-54
2021/03/17 05:01:09;;;;;;;10.03;5.10;;;;;;;;;;5035238;28;20036;-54
2021/03/17 05:03:37;;;;;;;9.97;5.23;;;;;;;;;;5035268;28;20037;-54
2021/03/17 05:06:05;;;;;;;10.00;5.20;;;;;;;;;;5035232;28;20388;-54
2021/03/17 05:08:32;;;;;;;11.50;5.20;;;;;;;;;;5035434;28;20036;-54
2021/03/17 05:10:59;;;;;;;13.10;5.00;;;;;;;;;;5035218;28;20156;-54
2021/03/17 05:13:27;;;;;;;9.80;5.33;;;;;;;;;;5034306;28;20045;-54
2021/03/17 05:15:53;;;;;;;8.67;5.00;;;;;;;;;;5035349;28;20029;-54
2021/03/17 05:18:20;;;;;;;9.27;5.17;;;;;;;;;;5035178;28;20025;-54
2021/03/17 05:20:49;;;;;;;9.23;4.70;;;;;;;;;;5034986;28;20491;-54
2021/03/17 05:23:19;;;;;;;9.40;4.70;;;;;;;;;;5034924;28;20040;-54
2021/03/17 05:25:46;;;;;;;8.43;4.90;;;;;;;;;;5035182;28;20113;-54
2021/03/17 05:28:14;;;;;;;9.93;5.40;;;;;;;;;;5034827;28;20104;-54
2021/03/17 05:30:42;;;;;;;13.90;5.67;;;;;;;;;;5034836;28;20025;-54
2021/03/17 05:33:10;;;;;;;7.60;4.80;;;;;;;;;;5034913;28;20064;-54
2021/03/17 05:35:38;;;;;;;11.47;4.80;;;;;;;;;;5034820;28;20163;-54
2021/03/17 05:38:05;;;;;;;7.57;5.00;;;;;;;;;;5034854;28;20018;-54
2021/03/17 05:40:32;;;;;;;11.63;5.80;;;;;;;;;;5034517;28;20432;-54
2021/03/17 05:43:02;;;;;;;8.10;5.20;;;;;;;;;;5034467;28;20043;-54
2021/03/17 05:45:29;;;;;;;12.40;6.00;;;;;;;;;;5034486;28;20495;-54
2021/03/17 05:47:57;;;;;;;8.97;5.13;;;;;;;;;;5035818;28;20073;-55
2021/03/17 05:50:24;;;;;;;7.40;4.30;;;;;;;;;;5034518;28;20096;-54
2021/03/17 05:52:51;;;;;;;8.63;4.63;;;;;;;;;;5034377;28;20437;-54
2021/03/17 05:55:19;;;;;;;7.33;4.00;;;;;;;;;;5016562;28;20112;-54
2021/03/17 05:57:46;;;;;;;9.90;4.93;;;;;;;;;;5034422;28;20026;-54
2021/03/17 06:00:14;;;;;;;9.13;4.90;;;;;;;;;;5034179;28;20358;-54
2021/03/17 06:02:41;;;;;;;7.13;4.40;;;;;;;;;;5034141;28;20420;-54
2021/03/17 06:05:12;;;;;;;6.50;4.30;;;;;;;;;;5034244;28;20025;-54
2021/03/17 06:07:39;;;;;;;8.00;4.17;;;;;;;;;;5034091;28;20393;-54
2021/03/17 06:10:06;;;;;;;9.03;4.47;;;;;;;;;;5034073;28;20033;-54
2021/03/17 06:12:35;;;;;;;8.67;4.27;;;;;;;;;;5034125;28;20034;-54
2021/03/17 06:15:03;;;;;;;9.33;4.57;;;;;;;;;;5034079;28;20104;-54
2021/03/17 06:17:31;;;;;;;6.50;3.77;;;;;;;;;;5033853;28;20060;-54
2021/03/17 06:20:05;;;;;;;8.17;4.50;;;;;;;;;;5033881;28;20054;-54
2021/03/17 06:22:32;;;;;;;8.15;3.80;;;;;;;;;;5033798;28;20408;-54
2021/03/17 06:24:59;;;;;;;8.37;4.57;;;;;;;;;;5032820;28;20052;-54
2021/03/17 06:27:25;;;;;;;7.27;4.37;;;;;;;;;;5033928;28;20052;-54
2021/03/17 06:29:52;;;;;;;15.47;4.40;;;;;;;;;;5033511;28;20025;-54
2021/03/17 06:32:19;;;;;;;7.73;4.33;;;;;;;;;;5033706;28;20080;-54
2021/03/17 06:34:49;;;;;;;6.73;3.77;;;;;;;;;;5033572;28;20030;-54
2021/03/17 06:37:16;;;;;;;6.23;4.00;;;;;;;;;;5033504;28;20084;-54
2021/03/17 06:39:44;;;;;;;9.17;4.30;;;;;;;;;;5033513;28;20029;-54
2021/03/17 06:42:11;;;;;;;5.70;3.87;;;;;;;;;;5033464;28;20072;-54
2021/03/17 06:44:38;;;;;;;6.07;3.83;;;;;;;;;;5033533;28;20049;-54
2021/03/17 06:47:11;;;;;;;8.97;4.27;;;;;;;;;;5033341;28;20025;-54
2021/03/17 06:49:38;;;;;;;6.53;3.60;;;;;;;;;;5016893;28;20496;-54
2021/03/17 06:52:23;;;;;;;13.17;4.47;;;;;;;;;;5033342;28;20072;-54
2021/03/17 06:55:05;;;;;;;10.05;4.28;;;;;;;;;;5033298;28;20112;-54
2021/03/17 06:57:32;;;;;;;7.47;4.37;;;;;;;;;;5033276;28;20096;-54
2021/03/17 07:00:34;;;;;;;6.00;3.60;;;;;;;;;;5033003;28;20034;-54
2021/03/17 07:03:04;;;;;;;6.13;4.73;;;;;;;;;;4933640;29;20399;-54
2021/03/17 07:05:31;;;;;;;9.50;4.40;;;;;;;;;;5015765;28;20057;-54
2021/03/17 07:07:59;;;;;;;8.43;3.70;;;;;;;;;;5033117;28;20025;-54
2021/03/17 07:10:31;;;;;;;8.10;3.63;;;;;;;;;;5032995;28;20074;-54
2021/03/17 07:12:58;;;;;;;6.90;3.77;;;;;;;;;;5032944;28;20040;-54
2021/03/17 07:15:25;;;;;;;7.73;3.33;;;;;;;;;;5032970;28;20022;-54
2021/03/17 07:17:55;;;;;;;6.40;3.33;;;;;;;;;;5033094;28;20107;-54
2021/03/17 07:20:42;;;;;;;6.10;3.37;;;;;;;;;;5032837;28;20053;-54
2021/03/17 07:23:21;;;;;;;4.43;3.07;;;;;;;;;;5032778;28;20389;-54
2021/03/17 07:26:06;;;;;;;8.87;4.40;;;;;;;;;;5032787;28;20103;-54
2021/03/17 07:28:51;;;;;;;6.25;3.97;;;;;;;;;;5032676;28;20380;-54
2021/03/17 07:31:22;;;;;;;8.38;3.88;;;;;;;;;;5032854;28;20018;-54
2021/03/17 07:33:49;;;;;;;8.27;3.70;;;;;;;;;;5033131;28;20033;-54
2021/03/17 07:36:34;;;;;;;7.13;3.90;;;;;;;;;;5032104;28;20496;-54
2021/03/17 07:39:04;;;;;;;6.78;3.88;;;;;;;;;;5032757;28;20072;-54
2021/03/17 07:41:32;;;;;;;5.17;3.43;;;;;;;;;;5032736;28;20026;-54
2021/03/17 07:43:59;;;;;;;7.40;3.90;;;;;;;;;;5032689;28;20388;-54
2021/03/17 07:46:26;;;;;;;10.97;3.67;;;;;;;;;;5032532;28;20152;-54
2021/03/17 07:48:53;;;;;;;6.90;3.90;;;;;;;;;;5033479;28;20401;-54
2021/03/17 07:51:20;;;;;;;8.90;4.00;;;;;;;;;;5033195;28;20104;-54
2021/03/17 07:53:53;;;;;;;10.10;3.80;;;;;;;;;;5032582;28;20108;-54
2021/03/17 07:56:24;;;;;;;6.70;3.60;;;;;;;;;;5032575;28;20033;-54
2021/03/17 07:58:52;;;;;;;8.40;3.70;;;;;;;;;;5032516;28;20032;-54
2021/03/17 08:01:19;;;;;;;6.27;3.57;;;;;;;;;;5032442;28;20385;-54
2021/03/17 08:03:47;;;;;;;9.10;3.70;;;;;;;;;;5032458;28;20037;-54
2021/03/17 08:06:17;;;;;;;6.37;3.27;;;;;;;;;;5032488;28;20029;-54
2021/03/17 08:08:58;;;;;;;7.20;3.60;;;;;;;;;;5032325;28;20128;-54
2021/03/17 08:11:24;;;;;;;9.50;4.30;;;;;;;;;;5014662;28;20064;-54
2021/03/17 08:13:52;;;;;;;10.03;3.97;;;;;;;;;;5032252;28;20392;-54
2021/03/17 08:16:21;;;;;;;13.53;5.20;;;;;;;;;;5032400;28;20434;-54
2021/03/17 08:18:49;;;;;;;13.30;5.37;;;;;;;;;;5032064;28;20448;-54
2021/03/17 08:21:36;;;;;;;6.50;3.80;;;;;;;;;;5032396;28;20053;-54
2021/03/17 08:24:03;;;;;;;5.00;3.30;;;;;;;;;;5032331;28;20385;-54
2021/03/17 08:26:30;;;;;;;7.03;4.03;;;;;;;;;;5032334;28;20072;-54
2021/03/17 08:28:57;;;;;;;6.83;4.23;;;;;;;;;;5032078;28;20507;-54
2021/03/17 08:31:44;;;;;;;9.30;4.17;;;;;;;;;;5032208;28;20053;-54
2021/03/17 08:34:17;;;;;;;8.00;4.00;;;;;;;;;;5015752;28;20045;-54
2021/03/17 08:36:43;;;;;;;7.00;4.17;;;;;;;;;;5032099;28;20366;-54
2021/03/17 08:39:10;;;;;;;7.80;4.30;;;;;;;;;;5032179;28;20085;-54
2021/03/17 08:41:37;;;;;;;6.77;4.03;;;;;;;;;;5032083;28;20045;-54
2021/03/17 08:44:18;;;;;;;5.23;2.83;;;;;;;;;;5032168;28;20389;-54
2021/03/17 08:46:45;;;;;;;5.40;3.70;;;;;;;;;;5032451;28;20528;-54
2021/03/17 08:49:13;;;;;;;5.87;3.47;;;;;;;;;;5035154;28;20500;-54
2021/03/17 08:51:48;;;;;;;6.53;4.00;;;;;;;;;;5035569;28;20253;-53
2021/03/17 08:54:33;;;;;;;6.43;3.53;;;;;;;;;;5035612;28;20032;-54
2021/03/17 08:57:05;;;;;;;7.95;4.18;;;;;;;;;;5035517;28;20018;-54
2021/03/17 08:59:51;;;;;;;9.80;4.10;;;;;;;;;;5035364;28;20040;-54
2021/03/17 09:02:22;;;;;;;7.53;3.70;;;;;;;;;;5035386;28;20061;-54
2021/03/17 09:04:56;;;;;;;8.73;3.20;;;;;;;;;;5035675;28;20027;-53
2021/03/17 09:07:24;;;;;;;5.43;2.80;;;;;;;;;;5035645;28;20018;-54
2021/03/17 09:09:54;;;;;;;5.00;3.40;;;;;;;;;;5035307;28;20036;-54
2021/03/17 09:12:27;;;;;;;5.37;3.47;;;;;;;;;;5035227;28;20258;-53
2021/03/17 09:15:12;;;;;;;6.97;3.17;;;;;;;;;;5035086;28;20025;-54
2021/03/17 09:17:49;;;;;;;5.70;3.83;;;;;;;;;;5034981;28;20338;-53
2021/03/17 09:20:22;;;;;;;5.57;3.30;;;;;;;;;;5034940;28;20278;-54
2021/03/17 09:22:59;;;;;;;5.13;3.20;;;;;;;;;;5035020;28;20533;-54
2021/03/17 09:25:27;;;;;;;6.83;3.17;;;;;;;;;;5035067;28;20610;-54
2021/03/17 09:27:54;;;;;;;4.20;2.80;;;;;;;;;;5034937;28;20254;-53
2021/03/17 09:30:23;;;;;;;5.43;3.17;;;;;;;;;;5034927;28;20247;-54
2021/03/17 09:32:50;;;;;;;6.87;3.60;;;;;;;;;;5034996;28;20262;-54
2021/03/17 09:35:18;;;;;;;6.10;3.50;;;;;;;;;;5034856;28;20255;-53
2021/03/17 09:37:45;;;;;;;6.00;3.87;;;;;;;;;;5034794;28;20753;-54
2021/03/17 09:40:14;;;;;;;9.27;3.97;;;;;;;;;;5034672;28;20255;-54
2021/03/17 09:42:41;;;;;;;8.97;4.20;;;;;;;;;;5034571;28;20389;-53
2021/03/17 09:45:09;;;;;;;6.23;3.80;;;;;;;;;;5034522;28;20254;-53
2021/03/17 09:47:35;;;;;;;6.53;3.57;;;;;;;;;;5034630;28;20262;-54
2021/03/17 09:50:02;;;;;;;7.10;3.40;;;;;;;;;;5035676;28;20461;-54
2021/03/17 09:52:29;;;;;;;9.73;3.77;;;;;;;;;;5034411;28;20658;-53
2021/03/17 09:54:56;;;;;;;5.47;3.33;;;;;;;;;;5034515;28;20242;-53
2021/03/17 09:57:24;;;;;;;5.77;3.67;;;;;;;;;;5034380;28;20254;-54
2021/03/17 09:59:50;;;;;;;6.97;4.27;;;;;;;;;;5034017;28;20254;-54
2021/03/17 10:02:19;;;;;;;7.37;3.83;;;;;;;;;;5034208;28;20326;-53
2021/03/17 10:04:48;;;;;;;6.13;3.60;;;;;;;;;;5034191;28;20251;-53
2021/03/17 10:07:16;;;;;;;6.00;3.17;;;;;;;;;;5034154;28;20283;-54
2021/03/17 10:09:44;;;;;;;10.37;3.87;;;;;;;;;;5033953;28;20259;-53
2021/03/17 10:12:25;;;;;;;8.00;4.10;;;;;;;;;;5034157;28;20261;-53
2021/03/17 10:14:53;;;;;;;7.53;3.97;;;;;;;;;;5033932;28;20610;-53
2021/03/17 10:17:21;;;;;;;11.63;4.00;;;;;;;;;;5034044;28;20253;-53
2021/03/17 10:19:49;;;;;;;6.33;3.50;;;;;;;;;;5033987;28;20285;-53
2021/03/17 10:22:16;;;;;;;5.90;3.63;;;;;;;;;;5033736;28;20341;-54
2021/03/17 10:24:44;;;;;;;6.53;3.33;;;;;;;;;;5033905;28;20271;-54
2021/03/17 10:27:12;;;;;;;9.80;4.23;;;;;;;;;;5033986;28;20255;-53
2021/03/17 10:29:42;;;;;;;4.80;3.20;;;;;;;;;;5033680;28;20714;-53
2021/03/17 10:32:09;;;;;;;9.43;4.20;;;;;;;;;;5033685;28;20297;-54
2021/03/17 10:34:37;;;;;;;4.67;3.10;;;;;;;;;;5033668;28;20273;-54
2021/03/17 10:37:04;;;;;;;6.43;3.37;;;;;;;;;;5033604;28;20251;-53
2021/03/17 10:39:33;;;;;;;6.40;3.83;;;;;;;;;;5033445;28;20262;-53
2021/03/17 10:42:00;;;;;;;8.13;4.47;;;;;;;;;;5033350;28;20310;-54
2021/03/17 10:44:30;;;;;;;6.33;4.03;;;;;;;;;;5033481;28;20341;-54
2021/03/17 10:47:09;;;;;;;8.47;4.10;;;;;;;;;;5033509;28;20246;-54
2021/03/17 10:49:45;;;;;;;6.13;3.83;;;;;;;;;;5034705;28;20297;-53
2021/03/17 10:52:12;;;;;;;9.60;4.40;;;;;;;;;;5033288;28;20250;-54
2021/03/17 10:54:43;;;;;;;6.10;3.80;;;;;;;;;;5033413;28;20250;-53
2021/03/17 10:57:10;;;;;;;6.87;3.83;;;;;;;;;;5033255;28;20793;-53
2021/03/17 10:59:38;;;;;;;5.87;3.43;;;;;;;;;;5033158;28;20267;-54
2021/03/17 11:02:19;;;;;;;6.77;4.27;;;;;;;;;;5033226;28;20765;-53
2021/03/17 11:05:04;;;;;;;7.07;3.90;;;;;;;;;;5033230;28;20322;-54
2021/03/17 11:07:49;;;;;;;6.95;4.30;;;;;;;;;;5033059;28;20247;-54
2021/03/17 11:10:30;;;;;;;6.55;4.38;;;;;;;;;;5032711;28;20053;-54
2021/03/17 11:12:57;;;;;;;5.23;3.77;;;;;;;;;;5033132;28;20025;-53
2021/03/17 11:15:27;;;;;;;9.03;4.50;;;;;;;;;;5032935;28;20350;-53
2021/03/17 11:17:54;;;;;;;6.00;3.80;;;;;;;;;;5033009;28;20254;-53
2021/03/17 11:20:21;;;;;;;8.23;4.30;;;;;;;;;;5032874;28;20254;-53
2021/03/17 11:22:48;;;;;;;5.57;3.80;;;;;;;;;;5032848;28;20286;-53
2021/03/17 11:25:15;;;;;;;8.53;3.43;;;;;;;;;;5033005;28;20255;-53
2021/03/17 11:27:42;;;;;;;9.97;3.67;;;;;;;;;;5032910;28;20798;-54
2021/03/17 11:30:11;;;;;;;5.07;3.60;;;;;;;;;;5015072;28;20259;-54
2021/03/17 11:32:37;;;;;;;8.23;4.43;;;;;;;;;;5032702;28;20730;-53
2021/03/17 11:35:05;;;;;;;10.17;4.27;;;;;;;;;;5032776;28;20259;-53
2021/03/17 11:37:32;;;;;;;9.37;4.00;;;;;;;;;;5032775;28;20293;-53
2021/03/17 11:39:59;;;;;;;7.60;4.00;;;;;;;;;;5032525;28;20259;-53
2021/03/17 11:42:26;;;;;;;7.07;3.63;;;;;;;;;;5032628;28;20283;-53
2021/03/17 11:44:52;;;;;;;6.70;3.70;;;;;;;;;;5032599;28;20338;-53
2021/03/17 11:47:19;;;;;;;5.63;4.00;;;;;;;;;;5032700;28;20819;-53
2021/03/17 11:49:46;;;;;;;8.73;4.50;;;;;;;;;;5033956;28;20642;-53
2021/03/17 11:52:13;;;;;;;6.53;3.90;;;;;;;;;;5032689;28;20722;-53
2021/03/17 11:54:40;;;;;;;9.53;4.27;;;;;;;;;;5032646;28;20251;-53
2021/03/17 11:57:07;;;;;;;8.67;3.77;;;;;;;;;;5032595;28;20290;-53
2021/03/17 11:59:34;;;;;;;6.13;4.00;;;;;;;;;;5032459;28;20250;-54
2021/03/17 12:02:01;;;;;;;7.40;3.80;;;;;;;;;;5032515;28;20295;-53
2021/03/17 12:04:27;;;;;;;7.90;4.33;;;;;;;;;;5032519;28;20263;-53
2021/03/17 12:06:54;;;;;;;8.30;4.30;;;;;;;;;;5032600;28;20258;-53
2021/03/17 12:09:21;;;;;;;7.63;3.93;;;;;;;;;;5032465;28;20773;-54
2021/03/17 12:11:48;;;;;;;7.47;3.83;;;;;;;;;;5032536;28;20247;-53
2021/03/17 12:14:14;;;;;;;11.13;4.03;;;;;;;;;;5032355;28;20269;-53
2021/03/17 12:16:41;;;;;;;7.97;4.07;;;;;;;;;;5032199;28;20247;-54
2021/03/17 12:19:08;;;;;;;6.60;3.63;;;;;;;;;;5032280;28;20314;-53
2021/03/17 12:21:35;;;;;;;7.33;4.10;;;;;;;;;;5032529;28;20274;-53
2021/03/17 12:24:02;;;;;;;10.33;4.97;;;;;;;;;;5018300;28;20287;-53
2021/03/17 12:26:28;;;;;;;8.83;5.17;;;;;;;;;;5036292;28;20251;-53
2021/03/17 12:28:55;;;;;;;9.67;4.70;;;;;;;;;;5035976;28;20601;-53
2021/03/17 12:31:22;;;;;;;5.50;4.13;;;;;;;;;;5018202;28;20785;-54
2021/03/17 12:33:49;;;;;;;8.40;3.73;;;;;;;;;;5035995;28;20661;-53
2021/03/17 12:36:16;;;;;;;8.30;4.17;;;;;;;;;;5036012;28;20737;-54
2021/03/17 12:38:43;;;;;;;8.63;5.10;;;;;;;;;;5035655;28;20251;-53
2021/03/17 12:41:09;;;;;;;7.87;4.40;;;;;;;;;;5035896;28;20258;-53
2021/03/17 12:43:36;;;;;;;7.20;3.97;;;;;;;;;;5035646;28;20278;-53
2021/03/17 12:46:03;;;;;;;7.10;4.07;;;;;;;;;;5035636;28;20800;-53
2021/03/17 12:48:30;;;;;;;9.97;4.50;;;;;;;;;;5037037;28;20586;-54
2021/03/17 12:50:57;;;;;;;8.60;4.63;;;;;;;;;;5035511;28;20259;-53
2021/03/17 12:53:23;;;;;;;9.30;4.73;;;;;;;;;;5035547;28;20254;-53
2021/03/17 12:55:50;;;;;;;8.00;4.67;;;;;;;;;;5035555;28;20262;-54
2021/03/17 12:58:17;;;;;;;6.80;4.10;;;;;;;;;;5035536;28;20258;-53
2021/03/17 13:00:44;;;;;;;7.10;3.90;;;;;;;;;;5035407;28;20313;-53
2021/03/17 13:03:11;;;;;;;8.73;4.53;;;;;;;;;;5035376;28;20290;-53
2021/03/17 13:05:37;;;;;;;16.37;5.03;;;;;;;;;;5035408;28;20254;-53
2021/03/17 13:08:04;;;;;;;11.70;4.70;;;;;;;;;;5035493;28;20333;-53
2021/03/17 13:10:33;;;;;;;10.87;4.50;;;;;;;;;;5035179;28;20254;-53
2021/03/17 13:12:59;;;;;;;11.60;5.17;;;;;;;;;;5035413;28;20258;-53
2021/03/17 13:15:26;;;;;;;8.80;4.87;;;;;;;;;;5035140;28;20282;-54
2021/03/17 13:17:53;;;;;;;6.90;4.63;;;;;;;;;;5034978;28;20263;-54
2021/03/17 13:20:21;;;;;;;6.33;4.43;;;;;;;;;;5034974;28;20308;-53
2021/03/17 13:22:49;;;;;;;13.27;4.87;;;;;;;;;;5034985;28;20298;-53
2021/03/17 13:25:16;;;;;;;14.17;5.67;;;;;;;;;;5034952;28;20255;-54
2021/03/17 13:27:44;;;;;;;25.30;5.80;;;;;;;;;;5034977;28;20602;-54
2021/03/17 13:30:11;;;;;;;19.07;5.70;;;;;;;;;;5034928;28;20265;-54
2021/03/17 13:32:38;;;;;;;13.60;5.63;;;;;;;;;;5034921;28;20265;-54
2021/03/17 13:35:05;;;;;;;9.83;5.47;;;;;;;;;;5034162;28;20262;-54
2021/03/17 13:37:32;;;;;;;14.97;4.70;;;;;;;;;;5034689;28;20606;-53
2021/03/17 13:39:59;;;;;;;12.03;5.43;;;;;;;;;;5034532;28;20335;-54
2021/03/17 13:42:26;;;;;;;10.23;4.83;;;;;;;;;;5034477;28;20279;-54
2021/03/17 13:44:53;;;;;;;15.87;5.90;;;;;;;;;;5034725;28;20354;-54
2021/03/17 13:47:26;;;;;;;15.73;5.40;;;;;;;;;;5034592;28;20277;-54
2021/03/17 13:49:53;;;;;;;9.33;4.60;;;;;;;;;;5035873;28;20386;-54
2021/03/17 13:52:20;;;;;;;7.60;4.90;;;;;;;;;;5034419;28;20262;-54
2021/03/17 13:54:46;;;;;;;12.00;5.57;;;;;;;;;;5034503;28;20040;-54
2021/03/17 13:57:13;;;;;;;15.50;5.40;;;;;;;;;;5034460;28;20025;-54
2021/03/17 13:59:40;;;;;;;11.33;5.77;;;;;;;;;;5034183;28;20025;-54
2021/03/17 14:02:07;;;;;;;13.90;6.07;;;;;;;;;;5034134;28;20044;-54
2021/03/17 14:04:33;;;;;;;12.03;5.50;;;;;;;;;;5034188;28;20108;-54
2021/03/17 14:07:00;;;;;;;14.40;5.77;;;;;;;;;;5034267;28;20028;-54
2021/03/17 14:09:27;;;;;;;9.87;5.13;;;;;;;;;;5034143;28;20060;-54
2021/03/17 14:11:54;;;;;;;10.63;5.40;;;;;;;;;;5034118;28;20132;-54
2021/03/17 14:14:21;;;;;;;15.07;5.17;;;;;;;;;;5034111;28;20068;-54
2021/03/17 14:16:48;;;;;;;8.13;5.40;;;;;;;;;;5034071;28;20464;-54
2021/03/17 14:19:14;;;;;;;8.13;4.77;;;;;;;;;;5033787;28;20029;-54
2021/03/17 14:21:41;;;;;;;14.20;5.17;;;;;;;;;;5033948;28;20045;-54
2021/03/17 14:24:08;;;;;;;10.60;4.87;;;;;;;;;;5033768;28;20108;-55
2021/03/17 14:26:35;;;;;;;9.00;4.17;;;;;;;;;;5033873;28;20026;-55
2021/03/17 14:29:03;;;;;;;8.03;4.53;;;;;;;;;;5033645;28;20092;-54
2021/03/17 14:31:29;;;;;;;13.67;5.93;;;;;;;;;;5033833;28;20021;-53
2021/03/17 14:33:56;;;;;;;11.47;7.10;;;;;;;;;;5033756;28;20033;-54
2021/03/17 14:36:23;;;;;;;12.30;6.07;;;;;;;;;;5033556;28;20029;-54
2021/03/17 14:38:50;;;;;;;8.30;5.67;;;;;;;;;;5033508;28;20033;-54
2021/03/17 14:41:17;;;;;;;9.43;6.13;;;;;;;;;;5033670;28;20025;-54
2021/03/17 14:43:46;;;;;;;19.27;6.97;;;;;;;;;;5033537;28;20037;-54
2021/03/17 14:46:13;;;;;;;14.27;7.07;;;;;;;;;;5032660;28;20025;-54
2021/03/17 14:48:39;;;;;;;14.03;7.30;;;;;;;;;;5034529;28;20021;-53